Time;durP1;ratioP1;P1;durP2;ratioP2;P2;SDS_P1;SDS_P2;PMS_P1;PMS_P2;Temp;Humidity;BMP_temperature;BMP_pressure;BME280_temperature;BME280_humidity;BME280_pressure;Samples;Min_cycle;Max_cycle;Signal;HPM_P1;HPM_P2
2022/03/12 00:01:44;;;;;;;29.38;12.55;;;4.10;99.90;;;;;;4939323;29;20070;-84
2022/03/12 00:04:11;;;;;;;27.88;12.55;;;4.20;99.90;;;;;;4939194;28;20028;-85
2022/03/12 00:06:37;;;;;;;31.63;12.35;;;4.20;99.90;;;;;;4939256;29;20038;-84
2022/03/12 00:09:05;;;;;;;33.35;13.35;;;4.20;99.90;;;;;;4924774;29;20169;-84
2022/03/12 00:11:36;;;;;;;28.95;11.90;;;4.20;99.90;;;;;;4955007;29;20042;-85
2022/03/12 00:14:06;;;;;;;29.45;12.35;;;4.20;99.90;;;;;;4938501;29;20039;-84
2022/03/12 00:16:33;;;;;;;28.48;13.02;;;4.10;99.90;;;;;;4939076;29;20061;-85
2022/03/12 00:19:03;;;;;;;32.90;11.95;;;4.10;99.90;;;;;;4955136;29;20027;-85
2022/03/12 00:21:34;;;;;;;32.15;12.20;;;4.00;99.90;;;;;;4939118;29;20039;-84
2022/03/12 00:24:05;;;;;;;26.95;11.18;;;3.80;99.90;;;;;;4923300;29;20114;-85
2022/03/12 00:26:33;;;;;;;19.75;9.88;;;3.80;99.90;;;;;;4940409;29;20078;-84
2022/03/12 00:28:59;;;;;;;28.67;11.90;;;3.80;99.90;;;;;;4943137;29;20082;-84
2022/03/12 00:31:26;;;;;;;21.58;9.57;;;3.90;99.90;;;;;;4927311;29;20038;-84
2022/03/12 00:33:53;;;;;;;25.30;9.75;;;3.90;99.90;;;;;;4943133;29;20031;-84
2022/03/12 00:36:20;;;;;;;25.73;10.38;;;3.80;99.90;;;;;;4958785;28;20035;-84
2022/03/12 00:38:48;;;;;;;26.77;9.40;;;3.90;99.90;;;;;;4927064;29;20123;-84
2022/03/12 00:41:16;;;;;;;22.42;9.98;;;3.80;99.90;;;;;;4927016;29;20082;-85
2022/03/12 00:43:43;;;;;;;31.65;10.23;;;3.80;99.90;;;;;;4942823;29;20077;-84
2022/03/12 00:46:09;;;;;;;20.52;9.35;;;3.80;99.90;;;;;;4942657;29;20050;-84
2022/03/12 00:48:36;;;;;;;27.45;10.38;;;3.80;99.90;;;;;;4942673;29;20042;-84
2022/03/12 00:51:02;;;;;;;24.45;10.63;;;3.80;99.90;;;;;;4926766;29;20031;-85
2022/03/12 00:53:29;;;;;;;23.55;10.20;;;3.80;99.90;;;;;;4942985;29;20031;-84
2022/03/12 00:55:55;;;;;;;26.67;11.07;;;3.80;99.90;;;;;;4926804;29;20028;-85
2022/03/12 00:58:22;;;;;;;27.77;10.00;;;3.80;99.90;;;;;;4942607;29;20392;-84
2022/03/12 01:00:49;;;;;;;25.58;11.10;;;3.70;99.90;;;;;;4942483;29;20027;-85
2022/03/12 01:03:16;;;;;;;24.05;10.07;;;3.70;99.90;;;;;;4942448;29;20031;-84
2022/03/12 01:05:50;;;;;;;27.83;9.48;;;3.70;99.90;;;;;;4926607;29;20038;-84
2022/03/12 01:08:18;;;;;;;13.00;6.63;;;3.60;99.90;;;;;;4958216;29;20039;-84
2022/03/12 01:10:46;;;;;;;11.18;4.75;;;3.60;99.90;;;;;;4942124;29;20028;-84
2022/03/12 01:13:13;;;;;;;11.57;5.35;;;3.70;99.90;;;;;;4942261;29;20035;-84
2022/03/12 01:15:41;;;;;;;10.63;4.85;;;3.70;99.90;;;;;;4942236;29;20527;-84
2022/03/12 01:18:15;;;;;;;10.82;4.30;;;3.80;99.90;;;;;;4926279;29;20034;-84
2022/03/12 01:20:42;;;;;;;11.63;5.07;;;3.90;99.90;;;;;;4926388;29;20129;-85
2022/03/12 01:23:13;;;;;;;8.77;3.72;;;3.90;99.90;;;;;;4942058;29;20039;-85
2022/03/12 01:25:46;;;;;;;10.32;3.58;;;3.90;99.90;;;;;;4942104;29;20039;-84
2022/03/12 01:28:16;;;;;;;9.77;3.78;;;4.00;99.90;;;;;;4941857;29;20497;-84
2022/03/12 01:30:43;;;;;;;5.55;3.33;;;4.10;99.90;;;;;;4926002;29;20503;-84
2022/03/12 01:33:11;;;;;;;10.95;3.22;;;4.10;99.90;;;;;;4941984;29;20042;-84
2022/03/12 01:35:38;;;;;;;7.93;3.63;;;4.10;99.90;;;;;;4942100;29;20481;-84
2022/03/12 01:38:06;;;;;;;6.22;3.58;;;4.10;99.90;;;;;;4925998;29;20031;-84
2022/03/12 01:40:33;;;;;;;10.23;3.20;;;4.10;99.90;;;;;;4941809;29;20188;-84
2022/03/12 01:43:00;;;;;;;8.27;3.30;;;4.10;99.90;;;;;;4941694;28;20484;-85
2022/03/12 01:45:28;;;;;;;8.05;3.10;;;4.20;99.90;;;;;;4941763;29;20027;-84
2022/03/12 01:48:02;;;;;;;7.60;3.25;;;4.10;99.90;;;;;;4941519;29;20372;-84
2022/03/12 01:50:34;;;;;;;5.82;2.78;;;4.20;99.90;;;;;;4941687;29;20035;-84
2022/03/12 01:53:07;;;;;;;10.15;3.63;;;4.10;99.90;;;;;;4941673;28;20069;-85
2022/03/12 01:55:39;;;;;;;7.18;3.13;;;4.10;99.90;;;;;;4925772;29;20035;-84
2022/03/12 01:58:09;;;;;;;9.35;3.15;;;4.10;99.90;;;;;;4941607;29;20028;-84
2022/03/12 02:00:48;;;;;;;7.10;3.22;;;4.10;99.90;;;;;;4941744;29;20028;-84
2022/03/12 02:03:22;;;;;;;8.02;3.35;;;4.10;99.90;;;;;;4941430;29;20027;-85
2022/03/12 02:05:48;;;;;;;5.72;2.97;;;4.20;99.90;;;;;;4941915;29;20035;-84
2022/03/12 02:08:16;;;;;;;7.30;3.15;;;4.10;99.90;;;;;;4925464;29;20051;-84
2022/03/12 02:10:44;;;;;;;9.80;3.40;;;4.20;99.90;;;;;;4941070;29;20465;-85
2022/03/12 02:13:12;;;;;;;7.63;3.05;;;4.10;99.90;;;;;;4925428;29;20031;-84
2022/03/12 02:15:39;;;;;;;7.38;3.17;;;4.10;99.90;;;;;;4925197;29;20047;-84
2022/03/12 02:18:07;;;;;;;6.50;3.17;;;4.10;99.90;;;;;;4941416;29;20070;-84
2022/03/12 02:20:38;;;;;;;9.27;3.30;;;4.10;99.90;;;;;;4941256;29;20042;-84
2022/03/12 02:23:09;;;;;;;7.63;3.15;;;4.10;99.90;;;;;;4940898;29;20058;-84
2022/03/12 02:25:35;;;;;;;6.28;3.08;;;4.10;99.90;;;;;;4940855;29;20030;-84
2022/03/12 02:28:18;;;;;;;6.97;3.00;;;4.10;99.90;;;;;;4940794;29;20130;-84
2022/03/12 02:30:51;;;;;;;8.95;3.47;;;4.10;99.90;;;;;;4940890;29;20066;-85
2022/03/12 02:33:29;;;;;;;6.88;2.83;;;4.10;99.90;;;;;;4941512;29;20362;-84
2022/03/12 02:35:57;;;;;;;5.88;2.67;;;4.10;99.90;;;;;;4924977;28;20063;-84
2022/03/12 02:38:28;;;;;;;8.82;2.90;;;4.10;99.90;;;;;;4940695;29;20027;-84
2022/03/12 02:41:10;;;;;;;5.78;3.08;;;4.10;99.90;;;;;;4940818;29;20042;-84
2022/03/12 02:43:39;;;;;;;7.28;2.83;;;4.10;99.90;;;;;;4940613;29;20059;-85
2022/03/12 02:46:06;;;;;;;5.47;2.83;;;4.10;99.90;;;;;;4940478;28;20023;-84
2022/03/12 02:48:33;;;;;;;5.50;2.75;;;4.10;99.90;;;;;;4940125;28;20126;-84
2022/03/12 02:50:59;;;;;;;6.38;2.42;;;4.10;99.90;;;;;;4924672;29;20464;-84
2022/03/12 02:53:26;;;;;;;7.28;3.30;;;4.10;99.90;;;;;;4940680;29;20034;-84
2022/03/12 02:55:52;;;;;;;6.47;3.15;;;4.10;99.90;;;;;;4940436;29;20019;-84
2022/03/12 02:58:18;;;;;;;13.60;3.40;;;4.10;99.90;;;;;;4924435;29;20027;-84
2022/03/12 03:00:49;;;;;;;8.23;3.20;;;4.10;99.90;;;;;;4924576;29;20034;-84
2022/03/12 03:03:16;;;;;;;4.70;2.65;;;4.10;99.90;;;;;;4940262;29;20031;-85
2022/03/12 03:05:46;;;;;;;7.82;3.03;;;4.10;99.90;;;;;;4940221;29;20113;-84
2022/03/12 03:08:19;;;;;;;6.40;2.83;;;4.10;99.90;;;;;;4940222;29;20050;-84
2022/03/12 03:10:50;;;;;;;6.57;3.10;;;4.00;99.90;;;;;;4940073;29;20027;-84
2022/03/12 03:13:17;;;;;;;7.20;3.33;;;4.00;99.90;;;;;;4940591;29;20098;-84
2022/03/12 03:15:49;;;;;;;8.02;3.17;;;4.00;99.90;;;;;;4955914;28;20075;-84
2022/03/12 03:18:20;;;;;;;4.78;2.80;;;4.00;99.90;;;;;;4939895;29;20035;-84
2022/03/12 03:20:48;;;;;;;7.03;3.33;;;3.90;99.90;;;;;;4939802;29;20117;-84
2022/03/12 03:23:15;;;;;;;11.60;3.10;;;3.80;99.90;;;;;;4939859;29;20028;-84
2022/03/12 03:25:42;;;;;;;10.40;3.53;;;3.80;99.90;;;;;;4939827;29;20031;-84
2022/03/12 03:28:09;;;;;;;7.20;3.47;;;3.80;99.90;;;;;;4923943;29;20043;-84
2022/03/12 03:30:39;;;;;;;9.25;2.95;;;3.70;99.90;;;;;;4939709;29;20035;-84
2022/03/12 03:33:12;;;;;;;8.35;3.55;;;3.60;99.90;;;;;;4939880;29;20035;-84
2022/03/12 03:35:39;;;;;;;10.18;4.00;;;3.70;99.90;;;;;;4939822;29;20031;-84
2022/03/12 03:38:10;;;;;;;5.40;2.97;;;3.70;99.90;;;;;;4939941;29;20023;-84
2022/03/12 03:40:38;;;;;;;5.55;2.90;;;3.70;99.90;;;;;;4940224;29;20173;-84
2022/03/12 03:43:09;;;;;;;9.85;4.05;;;3.70;99.90;;;;;;4923605;29;20020;-85
2022/03/12 03:45:36;;;;;;;9.30;4.68;;;3.70;99.90;;;;;;4939591;29;20579;-84
2022/03/12 03:48:03;;;;;;;7.68;4.30;;;3.70;99.90;;;;;;4939307;29;20094;-84
2022/03/12 03:50:30;;;;;;;13.02;6.45;;;3.60;99.90;;;;;;4923692;29;20388;-84
2022/03/12 03:53:03;;;;;;;9.30;4.25;;;3.50;99.90;;;;;;4939587;29;20027;-85
2022/03/12 03:55:32;;;;;;;8.97;4.07;;;3.50;99.90;;;;;;4939576;29;20034;-84
2022/03/12 03:58:01;;;;;;;13.50;5.18;;;3.40;99.90;;;;;;4939227;29;20090;-84
2022/03/12 04:00:31;;;;;;;12.90;5.57;;;3.20;99.90;;;;;;4938604;29;20063;-84
2022/03/12 04:03:02;;;;;;;11.68;5.70;;;3.30;99.90;;;;;;4939198;29;20074;-84
2022/03/12 04:05:36;;;;;;;16.15;5.97;;;3.30;99.90;;;;;;4939287;29;20035;-84
2022/03/12 04:08:06;;;;;;;14.00;6.25;;;3.20;99.90;;;;;;4939106;29;20047;-84
2022/03/12 04:10:34;;;;;;;14.32;6.00;;;3.20;99.90;;;;;;4939218;29;20035;-84
2022/03/12 04:13:01;;;;;;;16.75;6.68;;;3.20;99.90;;;;;;4939451;29;20121;-84
2022/03/12 04:15:28;;;;;;;14.18;6.43;;;3.20;99.90;;;;;;4954986;29;20047;-85
2022/03/12 04:17:57;;;;;;;15.68;7.28;;;3.20;99.90;;;;;;4939177;29;20039;-84
2022/03/12 04:20:26;;;;;;;16.58;8.07;;;3.20;99.90;;;;;;4939364;29;20036;-84
2022/03/12 04:22:53;;;;;;;11.75;5.82;;;3.20;99.90;;;;;;4923220;29;20027;-84
2022/03/12 04:25:20;;;;;;;16.73;7.28;;;3.30;99.90;;;;;;4923173;29;20031;-84
2022/03/12 04:27:48;;;;;;;32.70;9.73;;;3.20;99.90;;;;;;4939068;29;20058;-84
2022/03/12 04:30:20;;;;;;;29.58;10.90;;;3.30;99.90;;;;;;4938959;29;20033;-84
2022/03/12 04:32:47;;;;;;;24.13;8.55;;;3.20;99.90;;;;;;4939246;29;20035;-83
2022/03/12 04:35:17;;;;;;;20.85;7.97;;;3.20;99.90;;;;;;4939354;29;20029;-84
2022/03/12 04:37:44;;;;;;;23.73;8.98;;;3.20;99.90;;;;;;4938832;29;20031;-85
2022/03/12 04:40:19;;;;;;;18.27;9.25;;;3.10;99.90;;;;;;4938996;29;20039;-84
2022/03/12 04:42:46;;;;;;;26.77;10.25;;;3.10;99.90;;;;;;4938832;29;20446;-83
2022/03/12 04:45:20;;;;;;;22.60;9.85;;;3.00;99.90;;;;;;4954890;28;20031;-85
2022/03/12 04:47:49;;;;;;;24.60;10.80;;;3.00;99.90;;;;;;4938917;29;20043;-83
2022/03/12 04:50:19;;;;;;;22.27;10.13;;;2.90;99.90;;;;;;4938759;29;20030;-84
2022/03/12 04:52:49;;;;;;;24.15;11.27;;;2.90;99.90;;;;;;4923247;29;20039;-83
2022/03/12 04:55:20;;;;;;;25.15;9.82;;;2.90;99.90;;;;;;4939018;29;20062;-84
2022/03/12 04:57:47;;;;;;;25.50;10.70;;;2.90;99.90;;;;;;4938707;29;20069;-84
2022/03/12 05:00:17;;;;;;;23.27;9.32;;;2.90;99.90;;;;;;4922852;29;20034;-84
2022/03/12 05:02:45;;;;;;;18.75;8.77;;;2.90;99.90;;;;;;4938852;29;20043;-84
2022/03/12 05:05:14;;;;;;;20.20;8.57;;;2.90;99.90;;;;;;4922909;29;20034;-85
2022/03/12 05:07:46;;;;;;;18.33;8.18;;;2.90;99.90;;;;;;4938695;29;20070;-83
2022/03/12 05:10:17;;;;;;;23.85;6.95;;;2.90;99.90;;;;;;4938772;28;20035;-84
2022/03/12 05:12:51;;;;;;;18.70;6.75;;;2.90;99.90;;;;;;4940470;29;20551;-83
2022/03/12 05:15:20;;;;;;;15.25;6.93;;;2.90;99.90;;;;;;4942094;29;20151;-83
2022/03/12 05:17:48;;;;;;;17.65;6.32;;;2.90;99.90;;;;;;4942091;29;20122;-83
2022/03/12 05:20:25;;;;;;;14.48;6.10;;;2.90;99.90;;;;;;4942087;29;20500;-83
2022/03/12 05:22:53;;;;;;;11.68;5.88;;;2.90;99.90;;;;;;4941830;29;20043;-83
2022/03/12 05:25:20;;;;;;;19.45;6.35;;;2.90;99.90;;;;;;4942090;29;20491;-83
2022/03/12 05:27:51;;;;;;;13.25;5.50;;;2.90;99.90;;;;;;4941937;29;20043;-83
2022/03/12 05:30:19;;;;;;;15.48;5.85;;;2.90;99.90;;;;;;4942099;29;20087;-84
2022/03/12 05:32:48;;;;;;;16.58;5.88;;;2.90;99.90;;;;;;4941956;29;20027;-82
2022/03/12 05:35:19;;;;;;;16.85;6.90;;;2.90;99.90;;;;;;4941697;29;20523;-85
2022/03/12 05:37:50;;;;;;;19.48;7.75;;;2.90;99.90;;;;;;4941945;29;20027;-84
2022/03/12 05:40:26;;;;;;;21.27;8.85;;;3.00;99.90;;;;;;4941861;29;20031;-82
2022/03/12 05:42:58;;;;;;;20.65;8.48;;;3.00;99.90;;;;;;4942152;29;20027;-82
2022/03/12 05:45:24;;;;;;;22.52;8.25;;;3.10;99.90;;;;;;4941174;29;20125;-80
2022/03/12 05:47:52;;;;;;;20.95;8.70;;;3.10;99.90;;;;;;4924898;29;20039;-80
2022/03/12 05:50:19;;;;;;;18.98;8.27;;;3.10;99.90;;;;;;4956720;29;20036;-80
2022/03/12 05:52:57;;;;;;;17.73;8.05;;;3.20;99.90;;;;;;4940741;28;20035;-79
2022/03/12 05:55:24;;;;;;;27.23;9.48;;;3.10;99.90;;;;;;4956641;28;20117;-80
2022/03/12 05:57:51;;;;;;;24.70;9.60;;;2.90;99.90;;;;;;4940747;29;20118;-83
2022/03/12 06:00:19;;;;;;;28.75;9.88;;;2.80;99.90;;;;;;4941212;29;20055;-83
2022/03/12 06:02:50;;;;;;;22.00;9.00;;;2.80;99.90;;;;;;4941880;29;20019;-82
2022/03/12 06:05:24;;;;;;;21.08;9.32;;;2.80;99.90;;;;;;4940944;28;20038;-83
2022/03/12 06:07:52;;;;;;;18.80;9.02;;;2.90;99.90;;;;;;4941176;29;20043;-83
2022/03/12 06:10:29;;;;;;;24.50;8.57;;;3.00;99.90;;;;;;4957282;28;20565;-83
2022/03/12 06:12:58;;;;;;;17.42;7.70;;;3.20;99.90;;;;;;4941338;29;20034;-82
2022/03/12 06:15:27;;;;;;;17.20;7.03;;;3.40;99.90;;;;;;4940925;29;20102;-82
2022/03/12 06:17:54;;;;;;;22.08;7.88;;;3.40;99.90;;;;;;4940949;29;20122;-83
2022/03/12 06:20:23;;;;;;;14.55;6.60;;;3.50;99.90;;;;;;4940926;29;20028;-83
2022/03/12 06:22:53;;;;;;;17.75;7.40;;;3.60;99.90;;;;;;4925149;29;20382;-83
2022/03/12 06:25:24;;;;;;;21.08;7.43;;;3.70;99.90;;;;;;4956039;29;20063;-83
2022/03/12 06:27:54;;;;;;;13.00;5.22;;;3.80;99.90;;;;;;4940630;29;20126;-83
2022/03/12 06:30:26;;;;;;;14.00;4.95;;;4.00;99.90;;;;;;4956789;29;20032;-83
2022/03/12 06:32:58;;;;;;;17.58;6.07;;;4.10;99.90;;;;;;4940748;29;20543;-83
2022/03/12 06:35:27;;;;;;;9.55;4.40;;;4.30;99.90;;;;;;4925464;29;20500;-82
2022/03/12 06:37:56;;;;;;;9.43;4.82;;;4.50;99.90;;;;;;4940543;29;20051;-83
2022/03/12 06:40:28;;;;;;;9.93;4.97;;;4.60;99.90;;;;;;4940849;29;20027;-83
2022/03/12 06:42:59;;;;;;;15.27;4.97;;;4.70;99.90;;;;;;4940644;29;20042;-83
2022/03/12 06:45:28;;;;;;;17.13;6.03;;;4.80;99.90;;;;;;4940457;29;20031;-83
2022/03/12 06:47:56;;;;;;;19.17;5.43;;;5.00;99.90;;;;;;4940313;29;20043;-83
2022/03/12 06:50:25;;;;;;;7.25;4.00;;;5.20;99.90;;;;;;4940768;29;20042;-83
2022/03/12 06:52:52;;;;;;;8.60;2.95;;;5.30;99.90;;;;;;4940538;29;20399;-83
2022/03/12 06:55:23;;;;;;;8.25;3.65;;;5.40;99.90;;;;;;4940615;29;20027;-83
2022/03/12 06:57:52;;;;;;;9.52;3.53;;;5.60;99.90;;;;;;4940482;28;20034;-83
2022/03/12 07:00:24;;;;;;;8.13;3.92;;;5.70;99.90;;;;;;4940225;29;20082;-83
2022/03/12 07:02:51;;;;;;;10.65;3.53;;;5.80;99.90;;;;;;4940063;29;20123;-83
2022/03/12 07:05:18;;;;;;;11.02;4.10;;;5.90;99.90;;;;;;4924432;29;20023;-83
2022/03/12 07:07:47;;;;;;;8.95;3.70;;;5.90;99.90;;;;;;4940045;29;20043;-83
2022/03/12 07:10:14;;;;;;;18.27;4.45;;;5.90;99.90;;;;;;4940088;29;20035;-83
2022/03/12 07:12:46;;;;;;;7.35;3.90;;;6.00;99.90;;;;;;4939922;29;20040;-83
2022/03/12 07:15:16;;;;;;;7.97;3.75;;;6.10;99.90;;;;;;4956962;28;20058;-83
2022/03/12 07:17:43;;;;;;;8.32;3.45;;;6.20;99.90;;;;;;4940064;29;20488;-83
2022/03/12 07:20:12;;;;;;;6.28;3.50;;;6.40;99.90;;;;;;4939899;29;20023;-83
2022/03/12 07:22:42;;;;;;;10.80;3.63;;;6.40;99.90;;;;;;4924232;29;20508;-83
2022/03/12 07:25:10;;;;;;;6.97;3.42;;;6.50;99.90;;;;;;4940191;29;20024;-83
2022/03/12 07:27:37;;;;;;;9.30;4.32;;;6.60;99.90;;;;;;4955629;29;20035;-83
2022/03/12 07:30:08;;;;;;;9.35;4.30;;;6.60;99.90;;;;;;4939955;29;20038;-83
2022/03/12 07:32:35;;;;;;;8.23;3.63;;;6.70;99.90;;;;;;4939535;28;20035;-83
2022/03/12 07:35:04;;;;;;;6.75;3.15;;;6.90;99.90;;;;;;4939670;29;20031;-83
2022/03/12 07:37:31;;;;;;;9.10;3.38;;;7.10;99.90;;;;;;4955791;29;20035;-84
2022/03/12 07:39:58;;;;;;;5.05;2.95;;;7.50;99.90;;;;;;4939516;28;20039;-83
2022/03/12 07:42:24;;;;;;;4.57;2.85;;;7.90;99.90;;;;;;4939552;29;20038;-82
2022/03/12 07:44:52;;;;;;;5.28;2.75;;;8.00;99.90;;;;;;4939306;29;20035;-83
2022/03/12 07:47:18;;;;;;;4.07;2.67;;;8.00;99.90;;;;;;4939511;29;20038;-83
2022/03/12 07:49:45;;;;;;;5.85;2.88;;;7.90;99.90;;;;;;4939365;29;20404;-83
2022/03/12 07:52:12;;;;;;;4.05;2.45;;;7.90;99.90;;;;;;4939438;29;20063;-82
2022/03/12 07:54:39;;;;;;;7.20;2.88;;;7.90;99.90;;;;;;4939323;29;20089;-83
2022/03/12 07:57:05;;;;;;;5.63;2.63;;;7.70;99.90;;;;;;4939174;29;20077;-83
2022/03/12 07:59:34;;;;;;;3.85;2.35;;;7.70;99.90;;;;;;4923537;29;20061;-83
2022/03/12 08:02:02;;;;;;;4.97;2.20;;;7.80;99.90;;;;;;4939231;29;20038;-83
2022/03/12 08:04:32;;;;;;;5.45;3.03;;;7.90;99.90;;;;;;4939363;29;20031;-83
2022/03/12 08:07:02;;;;;;;5.45;2.40;;;8.00;99.90;;;;;;4938867;29;20086;-83
2022/03/12 08:09:47;;;;;;;8.18;2.53;;;8.10;99.90;;;;;;4939191;29;20492;-83
2022/03/12 08:12:15;;;;;;;6.82;2.50;;;8.00;99.90;;;;;;4939055;29;20135;-83
2022/03/12 08:14:45;;;;;;;7.00;2.60;;;8.10;99.90;;;;;;4938831;29;20027;-83
2022/03/12 08:17:12;;;;;;;8.23;3.38;;;8.30;99.90;;;;;;4923160;29;20066;-81
2022/03/12 08:19:38;;;;;;;6.07;3.13;;;8.10;99.90;;;;;;4955048;29;20039;-82
2022/03/12 08:22:06;;;;;;;4.43;2.33;;;7.90;99.90;;;;;;4955078;28;20029;-82
2022/03/12 08:24:34;;;;;;;4.60;2.65;;;8.20;99.90;;;;;;4955056;28;20058;-83
2022/03/12 08:27:00;;;;;;;8.77;3.10;;;8.30;99.90;;;;;;4939015;29;20039;-82
2022/03/12 08:29:29;;;;;;;7.35;3.50;;;8.50;99.90;;;;;;4938978;29;20023;-84
2022/03/12 08:31:55;;;;;;;8.27;4.20;;;8.70;99.90;;;;;;4922629;29;20039;-78
2022/03/12 08:34:22;;;;;;;7.40;3.40;;;8.60;99.90;;;;;;4953921;29;20058;-77
2022/03/12 08:36:48;;;;;;;7.50;2.83;;;8.50;99.90;;;;;;4953815;29;20027;-80
2022/03/12 08:39:16;;;;;;;6.72;2.75;;;8.50;99.90;;;;;;4955253;29;20031;-79
2022/03/12 08:41:44;;;;;;;6.13;2.95;;;8.70;99.90;;;;;;4954053;29;20378;-79
2022/03/12 08:44:14;;;;;;;6.20;3.38;;;8.70;99.90;;;;;;4937925;29;20031;-80
2022/03/12 08:46:46;;;;;;;8.60;3.65;;;8.60;99.90;;;;;;4953857;28;20038;-79
2022/03/12 08:49:14;;;;;;;6.72;3.17;;;8.50;99.90;;;;;;4941906;29;20512;-80
2022/03/12 08:51:44;;;;;;;8.40;3.30;;;8.30;99.90;;;;;;4940141;29;20465;-79
2022/03/12 08:54:11;;;;;;;13.93;3.25;;;8.00;99.90;;;;;;4945629;29;20046;-79
2022/03/12 08:56:38;;;;;;;7.00;3.00;;;8.10;99.90;;;;;;4931977;29;20075;-79
2022/03/12 08:59:05;;;;;;;5.03;2.90;;;8.10;99.90;;;;;;4949608;28;20081;-79
2022/03/12 09:01:33;;;;;;;12.18;3.55;;;8.10;99.90;;;;;;4948016;28;20410;-79
2022/03/12 09:04:00;;;;;;;9.32;3.35;;;8.10;99.90;;;;;;4945859;29;20132;-78
2022/03/12 09:06:28;;;;;;;5.18;2.63;;;8.20;99.90;;;;;;4946277;29;20118;-79
2022/03/12 09:08:55;;;;;;;4.57;2.90;;;8.10;99.90;;;;;;4932500;29;20553;-79
2022/03/12 09:11:23;;;;;;;4.57;2.70;;;8.10;99.90;;;;;;4929829;29;20066;-80
2022/03/12 09:13:54;;;;;;;6.70;3.22;;;8.00;99.90;;;;;;4930011;29;20023;-79
2022/03/12 09:16:22;;;;;;;6.28;3.10;;;8.00;99.90;;;;;;4944776;29;20043;-80
2022/03/12 09:18:50;;;;;;;4.63;2.53;;;8.00;99.90;;;;;;4934034;29;20503;-79
2022/03/12 09:21:18;;;;;;;6.70;2.50;;;7.90;99.90;;;;;;4944701;29;20481;-80
2022/03/12 09:23:44;;;;;;;6.85;3.45;;;8.00;99.90;;;;;;4949049;29;20031;-79
2022/03/12 09:26:13;;;;;;;5.35;2.65;;;8.10;99.90;;;;;;4948123;28;20126;-79
2022/03/12 09:28:39;;;;;;;6.03;2.90;;;8.10;99.90;;;;;;4929705;29;20119;-79
2022/03/12 09:31:06;;;;;;;3.10;2.08;;;8.20;99.90;;;;;;4946816;28;20031;-79
2022/03/12 09:33:34;;;;;;;5.35;2.45;;;8.20;99.90;;;;;;4945224;28;20082;-79
2022/03/12 09:36:01;;;;;;;3.75;2.55;;;8.30;99.90;;;;;;4929543;29;20032;-79
2022/03/12 09:38:27;;;;;;;3.35;2.05;;;8.30;99.90;;;;;;4947838;28;20028;-79
2022/03/12 09:40:54;;;;;;;5.95;2.47;;;8.40;99.90;;;;;;4945148;29;20024;-79
2022/03/12 09:43:20;;;;;;;4.15;2.53;;;8.50;99.90;;;;;;4946600;29;20031;-80
2022/03/12 09:45:47;;;;;;;7.22;3.03;;;8.40;99.90;;;;;;4929434;29;20019;-79
2022/03/12 09:48:15;;;;;;;6.25;2.90;;;8.40;99.90;;;;;;4945629;29;20048;-81
2022/03/12 09:50:41;;;;;;;6.18;2.75;;;8.20;99.90;;;;;;4947443;29;20019;-80
2022/03/12 09:53:09;;;;;;;4.18;2.55;;;8.20;99.90;;;;;;4944122;28;20501;-80
2022/03/12 09:55:36;;;;;;;5.63;2.40;;;8.20;99.90;;;;;;4928760;29;20047;-80
2022/03/12 09:58:02;;;;;;;7.30;2.50;;;8.30;99.90;;;;;;4927830;29;20031;-79
2022/03/12 10:00:29;;;;;;;6.30;2.40;;;8.10;99.90;;;;;;4946037;29;20489;-78
2022/03/12 10:02:56;;;;;;;6.47;2.60;;;8.10;99.90;;;;;;4944186;29;20035;-79
2022/03/12 10:05:23;;;;;;;8.20;3.58;;;8.00;99.90;;;;;;4944420;29;20020;-79
2022/03/12 10:07:49;;;;;;;8.80;3.00;;;8.10;99.90;;;;;;4945694;29;20504;-79
2022/03/12 10:10:21;;;;;;;5.35;2.53;;;8.30;99.90;;;;;;4932320;29;20019;-79
2022/03/12 10:12:50;;;;;;;3.35;2.50;;;8.30;99.90;;;;;;4931180;29;20046;-81
2022/03/12 10:15:19;;;;;;;3.95;2.53;;;8.30;99.90;;;;;;4935077;29;20050;-81
2022/03/12 10:17:47;;;;;;;4.90;2.45;;;8.10;99.90;;;;;;4946004;29;20488;-78
2022/03/12 10:20:15;;;;;;;7.88;3.45;;;8.30;99.90;;;;;;4947511;29;20058;-81
2022/03/12 10:22:45;;;;;;;4.90;2.97;;;8.30;99.90;;;;;;4921251;29;20035;-79
2022/03/12 10:25:13;;;;;;;7.32;3.40;;;8.50;99.90;;;;;;4937994;29;20474;-79
2022/03/12 10:27:43;;;;;;;7.40;2.35;;;8.30;99.90;;;;;;4936547;29;20046;-79
2022/03/12 10:30:12;;;;;;;7.30;3.50;;;8.20;99.90;;;;;;4937042;29;20031;-79
2022/03/12 10:32:49;;;;;;;5.47;2.53;;;8.30;99.90;;;;;;4920976;29;20478;-79
2022/03/12 10:35:19;;;;;;;8.15;2.88;;;8.30;99.90;;;;;;4936815;28;20032;-79
2022/03/12 10:37:48;;;;;;;7.13;2.60;;;8.30;99.90;;;;;;4936708;29;20027;-78
2022/03/12 10:40:24;;;;;;;6.75;2.97;;;8.20;99.90;;;;;;4939218;29;20038;-78
2022/03/12 10:42:55;;;;;;;6.47;3.38;;;8.10;99.90;;;;;;4944677;29;20031;-78
2022/03/12 10:45:26;;;;;;;10.90;3.90;;;8.30;99.90;;;;;;4943315;29;20462;-79
2022/03/12 10:47:59;;;;;;;3.95;2.22;;;8.30;99.90;;;;;;4940609;29;20032;-79
2022/03/12 10:50:32;;;;;;;6.63;3.00;;;8.10;99.90;;;;;;4929165;29;20031;-79
2022/03/12 10:52:59;;;;;;;8.30;2.88;;;7.90;99.90;;;;;;4945585;29;20082;-78
2022/03/12 10:55:39;;;;;;;5.32;2.50;;;8.10;99.90;;;;;;4942039;29;20083;-77
2022/03/12 10:58:15;;;;;;;8.95;2.45;;;8.10;99.90;;;;;;4945730;29;20031;-78
2022/03/12 11:00:52;;;;;;;5.28;2.30;;;8.20;99.90;;;;;;4927770;29;20540;-78
2022/03/12 11:03:24;;;;;;;4.28;2.53;;;8.10;99.90;;;;;;4945945;28;20043;-79
2022/03/12 11:05:54;;;;;;;4.75;2.60;;;7.90;99.90;;;;;;4928742;29;20027;-78
2022/03/12 11:08:22;;;;;;;5.90;2.45;;;8.00;99.90;;;;;;4943349;29;20043;-78
2022/03/12 11:11:09;;;;;;;6.03;2.30;;;8.10;99.90;;;;;;4946973;28;20062;-79
2022/03/12 11:13:47;;;;;;;5.40;2.78;;;8.20;99.90;;;;;;4926991;29;20031;-79
2022/03/12 11:16:20;;;;;;;6.40;2.22;;;8.30;99.90;;;;;;4950456;29;20110;-78
2022/03/12 11:18:53;;;;;;;4.75;2.22;;;8.30;99.90;;;;;;4954900;29;20031;-79
2022/03/12 11:21:37;;;;;;;4.88;2.78;;;8.30;99.90;;;;;;4955013;28;20027;-79
2022/03/12 11:24:06;;;;;;;3.80;1.83;;;8.40;99.90;;;;;;4954898;28;20035;-79
2022/03/12 11:26:45;;;;;;;4.20;2.40;;;8.30;99.90;;;;;;4954720;29;20035;-79
2022/03/12 11:29:13;;;;;;;6.60;2.65;;;8.30;99.90;;;;;;4954746;29;20480;-78
2022/03/12 11:31:49;;;;;;;7.28;2.47;;;8.40;99.90;;;;;;4954722;29;20034;-78
2022/03/12 11:34:20;;;;;;;4.57;2.53;;;8.20;99.90;;;;;;4954748;28;20083;-78
2022/03/12 11:36:59;;;;;;;6.28;2.80;;;8.10;99.90;;;;;;4954445;28;20584;-79
2022/03/12 11:39:40;;;;;;;5.93;2.28;;;8.10;99.90;;;;;;4954551;29;20039;-79
2022/03/12 11:42:27;;;;;;;15.88;2.95;;;8.20;99.90;;;;;;4954735;28;20031;-79
2022/03/12 11:44:59;;;;;;;2.97;1.80;;;8.20;99.90;;;;;;4954751;28;20031;-78
2022/03/12 11:47:28;;;;;;;4.60;2.85;;;8.10;99.90;;;;;;4955744;29;20031;-80
2022/03/12 11:49:58;;;;;;;7.55;2.58;;;8.00;99.90;;;;;;4954397;29;20074;-79
2022/03/12 11:52:29;;;;;;;4.93;2.45;;;8.10;99.90;;;;;;4953974;29;20023;-79
2022/03/12 11:54:56;;;;;;;5.88;2.80;;;8.10;99.90;;;;;;4938302;29;20069;-80
2022/03/12 11:57:30;;;;;;;14.57;2.60;;;8.10;99.90;;;;;;4938466;29;20031;-79
2022/03/12 11:59:59;;;;;;;5.70;2.10;;;8.10;99.90;;;;;;4954410;28;20032;-79
2022/03/12 12:02:35;;;;;;;7.85;2.28;;;8.20;99.90;;;;;;4956968;28;20031;-79
2022/03/12 12:05:10;;;;;;;6.60;3.35;;;8.20;99.90;;;;;;4919206;29;20035;-79
2022/03/12 12:07:36;;;;;;;;;;;8.20;99.90;;;;;;4936600;29;20036;-78
2022/03/12 12:10:11;;;;;;;6.25;2.38;;;8.20;99.90;;;;;;4935193;29;20005;-79
2022/03/12 12:12:38;;;;;;;6.72;2.70;;;8.10;99.90;;;;;;4935057;28;20032;-79
2022/03/12 12:15:07;;;;;;;3.95;2.22;;;8.20;99.90;;;;;;4934739;29;20052;-80
2022/03/12 12:17:33;;;;;;;4.28;2.72;;;8.20;99.90;;;;;;4934900;29;20047;-80
2022/03/12 12:20:00;;;;;;;4.72;2.47;;;8.30;99.90;;;;;;4934916;29;20115;-79
2022/03/12 12:22:27;;;;;;;3.70;2.25;;;8.20;99.90;;;;;;4934231;29;20031;-79
2022/03/12 12:24:56;;;;;;;5.80;2.40;;;8.10;99.90;;;;;;4934880;28;20036;-79
2022/03/12 12:27:23;;;;;;;5.25;2.20;;;8.10;99.90;;;;;;4934823;29;20087;-79
2022/03/12 12:29:52;;;;;;;4.63;2.70;;;8.10;99.90;;;;;;4934840;29;20058;-79
2022/03/12 12:32:24;;;;;;;5.57;3.03;;;8.10;99.90;;;;;;4934406;29;20035;-79
2022/03/12 12:35:03;;;;;;;4.95;2.53;;;8.20;99.90;;;;;;4934890;29;20520;-79
2022/03/12 12:37:57;;;;;;;4.47;1.90;;;8.10;99.90;;;;;;4934841;29;20063;-79
2022/03/12 12:40:47;;;;;;;3.63;2.30;;;8.00;99.90;;;;;;4934871;29;20078;-79
2022/03/12 12:43:19;;;;;;;5.57;2.10;;;8.10;99.90;;;;;;4936015;29;20042;-79
2022/03/12 12:46:05;;;;;;;5.97;2.40;;;8.00;99.90;;;;;;4934919;29;20560;-80
2022/03/12 12:48:34;;;;;;;6.50;2.35;;;8.00;99.90;;;;;;4934633;29;20040;-79
2022/03/12 12:51:17;;;;;;;5.32;2.35;;;8.00;99.90;;;;;;4936049;29;20027;-80
2022/03/12 12:53:52;;;;;;;4.75;1.98;;;8.20;99.90;;;;;;4936113;29;20040;-79
2022/03/12 12:56:39;;;;;;;3.90;1.60;;;8.20;99.90;;;;;;4934784;29;20052;-80
2022/03/12 12:59:09;;;;;;;6.53;2.70;;;8.00;99.90;;;;;;4934718;29;20031;-79
2022/03/12 13:01:42;;;;;;;9.68;2.65;;;8.00;99.90;;;;;;4935916;29;20079;-80
2022/03/12 13:04:10;;;;;;;4.60;2.33;;;7.90;99.90;;;;;;4934496;29;20179;-78
2022/03/12 13:06:37;;;;;;;4.45;1.77;;;7.90;99.90;;;;;;4934522;28;20445;-79